createdAt,value
2019-05-13T00:01:54.114Z,3.93
2019-05-13T00:04:24.249Z,4.00
2019-05-13T00:06:57.122Z,4.17
2019-05-13T00:09:24.687Z,3.90
2019-05-13T00:11:54.449Z,4.23
2019-05-13T00:14:24.006Z,4.37
2019-05-13T00:16:53.887Z,4.73
2019-05-13T00:19:23.478Z,4.63
2019-05-13T00:21:54.543Z,4.43
2019-05-13T00:24:24.245Z,4.27
2019-05-13T00:26:53.804Z,4.97
2019-05-13T00:29:23.460Z,5.30
2019-05-13T00:31:54.061Z,5.00
2019-05-13T00:34:24.369Z,5.17
2019-05-13T00:37:07.257Z,4.60
2019-05-13T00:39:24.785Z,5.00
2019-05-13T00:41:53.778Z,5.40
2019-05-13T00:44:24.406Z,5.50
2019-05-13T00:46:55.070Z,5.07
2019-05-13T00:49:24.154Z,5.73
2019-05-13T00:51:53.568Z,5.57
2019-05-13T00:54:23.670Z,5.40
2019-05-13T00:56:54.765Z,5.53
2019-05-13T00:59:24.301Z,5.10
2019-05-13T01:01:53.509Z,5.80
2019-05-13T01:04:23.350Z,6.30
2019-05-13T01:06:53.811Z,5.17
2019-05-13T01:09:23.708Z,5.87
2019-05-13T01:11:53.675Z,5.80
2019-05-13T01:14:23.625Z,5.83
2019-05-13T01:16:54.403Z,5.90
2019-05-13T01:19:23.750Z,6.03
2019-05-13T01:21:54.000Z,6.00
2019-05-13T01:24:24.517Z,6.43
2019-05-13T01:26:54.228Z,6.20
2019-05-13T01:29:24.033Z,6.27
2019-05-13T01:31:53.823Z,6.73
2019-05-13T01:34:23.735Z,7.07
2019-05-13T01:36:53.604Z,6.87
2019-05-13T01:39:24.249Z,6.70
2019-05-13T01:41:54.217Z,7.13
2019-05-13T01:44:24.415Z,6.90
2019-05-13T01:46:53.846Z,7.23
2019-05-13T01:49:24.155Z,7.03
2019-05-13T01:51:54.165Z,6.43
2019-05-13T01:54:24.633Z,6.93
2019-05-13T01:56:53.775Z,7.17
2019-05-13T01:59:23.900Z,6.93
2019-05-13T02:01:54.030Z,7.43
2019-05-13T02:04:24.552Z,7.43
2019-05-13T02:06:54.384Z,7.03
2019-05-13T02:09:24.611Z,7.57
2019-05-13T02:11:54.404Z,7.60
2019-05-13T02:14:23.941Z,8.03
2019-05-13T02:16:53.561Z,7.00
2019-05-13T02:19:24.541Z,7.27
2019-05-13T02:21:54.386Z,8.03
2019-05-13T02:24:23.748Z,7.73
2019-05-13T02:26:54.302Z,7.83
2019-05-13T02:29:24.446Z,7.77
2019-05-13T02:31:56.234Z,8.20
2019-05-13T02:34:24.806Z,7.87
2019-05-13T02:36:53.819Z,8.13
2019-05-13T02:39:22.870Z,8.10
2019-05-13T02:41:52.757Z,8.70
2019-05-13T02:44:22.782Z,7.83
2019-05-13T02:46:52.568Z,7.40
2019-05-13T02:49:23.077Z,8.43
2019-05-13T02:51:54.602Z,9.00
2019-05-13T02:54:23.290Z,8.33
2019-05-13T02:56:52.913Z,7.50
2019-05-13T02:59:22.797Z,7.80
2019-05-13T03:01:53.477Z,8.30
2019-05-13T03:04:23.513Z,8.20
2019-05-13T03:06:55.433Z,8.27
2019-05-13T03:09:24.863Z,8.73
2019-05-13T03:11:54.005Z,8.87
2019-05-13T03:14:24.079Z,8.57
2019-05-13T03:17:02.765Z,8.20
2019-05-13T03:19:32.953Z,9.03
2019-05-13T03:22:03.038Z,8.73
2019-05-13T03:24:32.914Z,8.20
2019-05-13T03:27:02.775Z,7.97
2019-05-13T03:29:33.217Z,8.07
2019-05-13T03:32:06.845Z,8.30
2019-05-13T03:34:36.033Z,8.40
2019-05-13T03:37:06.270Z,8.23
2019-05-13T03:39:36.238Z,8.50
2019-05-13T03:42:05.265Z,7.43
2019-05-13T03:44:34.290Z,7.40
2019-05-13T03:47:04.491Z,7.10
2019-05-13T03:49:36.054Z,7.70
2019-05-13T03:52:05.127Z,6.70
2019-05-13T03:54:34.141Z,7.83
2019-05-13T03:57:03.889Z,7.20
2019-05-13T03:59:33.601Z,7.20
2019-05-13T04:02:03.122Z,8.00
2019-05-13T04:04:32.695Z,7.33
2019-05-13T04:07:02.880Z,7.77
2019-05-13T04:09:36.075Z,7.40
2019-05-13T04:12:03.474Z,7.67
2019-05-13T04:14:33.780Z,7.37
2019-05-13T04:17:03.379Z,7.77
2019-05-13T04:19:33.981Z,8.20
2019-05-13T04:22:03.827Z,7.20
2019-05-13T04:24:33.730Z,7.80
2019-05-13T04:27:03.304Z,7.90
2019-05-13T04:29:33.396Z,7.20
2019-05-13T04:32:03.277Z,7.43
2019-05-13T04:34:33.937Z,8.13
2019-05-13T04:37:03.545Z,8.53
2019-05-13T04:39:45.801Z,8.23
2019-05-13T04:42:04.452Z,8.63
2019-05-13T04:44:33.798Z,8.13
2019-05-13T04:47:03.821Z,7.57
2019-05-13T04:49:33.217Z,8.40
2019-05-13T04:52:03.702Z,7.83
2019-05-13T04:54:33.825Z,7.27
2019-05-13T04:57:03.938Z,7.83
2019-05-13T04:59:34.819Z,8.73
2019-05-13T05:02:49.471Z,7.93
2019-05-13T05:05:52.756Z,7.07
2019-05-13T05:09:06.076Z,7.67
2019-05-13T05:12:32.105Z,8.37
2019-05-13T05:16:03.127Z,8.80
2019-05-13T05:19:13.533Z,7.43
2019-05-13T05:21:58.695Z,7.13
2019-05-13T05:24:42.030Z,7.00
2019-05-13T05:27:47.503Z,6.83
2019-05-13T05:31:02.443Z,5.83
2019-05-13T05:33:54.491Z,6.37
2019-05-13T05:36:58.295Z,6.20
2019-05-13T05:39:28.243Z,5.80
2019-05-13T05:41:57.880Z,5.93
2019-05-13T05:44:28.425Z,5.10
2019-05-13T05:46:59.137Z,6.20
2019-05-13T05:49:28.378Z,6.20
2019-05-13T05:52:01.973Z,5.97
2019-05-13T05:54:33.715Z,6.07
2019-05-13T05:57:04.128Z,5.70
2019-05-13T05:59:33.495Z,5.93
2019-05-13T06:02:02.797Z,5.93
2019-05-13T06:04:32.631Z,5.10
2019-05-13T06:07:03.414Z,5.50
2019-05-13T06:09:32.536Z,5.23
2019-05-13T06:12:02.245Z,5.63
2019-05-13T06:14:32.654Z,5.27
2019-05-13T06:17:02.865Z,5.40
2019-05-13T06:19:32.309Z,4.80
2019-05-13T06:22:02.398Z,4.70
2019-05-13T06:24:31.756Z,5.30
2019-05-13T06:27:01.667Z,4.67
2019-05-13T06:29:31.659Z,4.67
2019-05-13T06:32:15.116Z,5.00
2019-05-13T06:34:32.642Z,5.03
2019-05-13T06:37:02.289Z,4.70
2019-05-13T06:39:31.842Z,4.57
2019-05-13T06:42:02.674Z,4.77
2019-05-13T06:44:31.952Z,5.03
2019-05-13T06:47:02.534Z,4.97
2019-05-13T06:49:32.411Z,4.77
2019-05-13T06:52:02.189Z,4.97
2019-05-13T06:54:32.952Z,4.70
2019-05-13T06:57:05.118Z,4.50
2019-05-13T06:59:33.078Z,3.80
2019-05-13T07:02:02.866Z,4.40
2019-05-13T07:04:32.866Z,4.43
2019-05-13T07:07:12.206Z,4.03
2019-05-13T07:09:33.253Z,4.30
2019-05-13T07:12:03.491Z,4.63
2019-05-13T07:14:32.780Z,4.10
2019-05-13T07:17:02.323Z,4.20
2019-05-13T07:19:32.337Z,4.33
2019-05-13T07:22:03.041Z,4.23
2019-05-13T07:24:32.649Z,4.10
2019-05-13T07:27:02.244Z,4.13
2019-05-13T07:29:32.458Z,3.90
2019-05-13T07:32:02.471Z,4.00
2019-05-13T07:34:33.434Z,2.53
2019-05-13T07:37:02.679Z,3.70
2019-05-13T07:39:32.851Z,3.80
2019-05-13T07:42:05.348Z,3.67
2019-05-13T07:44:33.064Z,3.60
2019-05-13T07:47:03.683Z,3.50
2019-05-13T07:49:33.593Z,4.00
2019-05-13T07:52:03.791Z,2.63
2019-05-13T07:54:33.313Z,2.60
2019-05-13T07:57:02.757Z,3.07
2019-05-13T07:59:32.230Z,3.00
2019-05-13T08:02:02.594Z,3.07
2019-05-13T08:04:33.519Z,3.00
2019-05-13T08:07:02.940Z,3.00
2019-05-13T08:09:33.023Z,2.93
2019-05-13T08:12:10.194Z,2.70
2019-05-13T08:14:33.905Z,2.30
2019-05-13T08:17:03.636Z,2.53
2019-05-13T08:19:32.985Z,2.80
2019-05-13T08:22:02.581Z,1.80
2019-05-13T08:24:31.852Z,2.30
2019-05-13T08:27:02.347Z,2.47
2019-05-13T08:29:32.715Z,2.00
2019-05-13T08:32:02.997Z,2.40
2019-05-13T08:34:33.222Z,2.00
2019-05-13T08:37:03.208Z,1.90
2019-05-13T08:39:38.071Z,2.10
2019-05-13T08:42:15.566Z,2.20
2019-05-13T08:44:35.144Z,2.63
2019-05-13T08:47:04.463Z,2.63
2019-05-13T08:49:33.769Z,1.93
2019-05-13T08:52:02.849Z,1.97
2019-05-13T08:54:32.752Z,2.17
2019-05-13T08:57:03.245Z,2.10
2019-05-13T08:59:32.767Z,1.90
2019-05-13T09:02:03.389Z,2.07
2019-05-13T09:04:32.620Z,2.00
2019-05-13T09:07:02.375Z,1.90
2019-05-13T09:09:32.039Z,2.40
2019-05-13T09:12:02.542Z,2.10
2019-05-13T09:14:32.639Z,2.30
2019-05-13T09:17:02.473Z,1.87
2019-05-13T09:19:32.503Z,1.80
2019-05-13T09:22:03.397Z,2.20
2019-05-13T09:24:37.651Z,1.90
2019-05-13T09:27:04.496Z,2.07
2019-05-13T09:29:33.909Z,2.50
2019-05-13T09:32:04.099Z,2.00
2019-05-13T09:34:33.742Z,2.00
2019-05-13T09:37:03.263Z,1.90
2019-05-13T09:39:32.665Z,2.20
2019-05-13T09:42:02.898Z,2.05
2019-05-13T09:44:32.933Z,2.40
2019-05-13T09:47:02.896Z,2.30
2019-05-13T09:49:33.156Z,2.40
2019-05-13T09:52:02.460Z,1.90
2019-05-13T09:54:33.087Z,2.20
2019-05-13T09:57:02.366Z,1.90
2019-05-13T09:59:32.180Z,2.00
2019-05-13T10:02:02.902Z,2.00
2019-05-13T10:04:32.504Z,1.80
2019-05-13T10:07:02.545Z,2.15
2019-05-13T10:09:33.113Z,1.70
2019-05-13T10:12:03.059Z,2.00
2019-05-13T10:14:33.178Z,2.12
2019-05-13T10:17:06.152Z,2.00
2019-05-13T10:19:33.629Z,2.02
2019-05-13T10:22:03.304Z,2.22
2019-05-13T10:24:32.939Z,2.05
2019-05-13T10:27:02.878Z,1.75
2019-05-13T10:29:32.380Z,1.92
2019-05-13T10:32:03.593Z,2.35
2019-05-13T10:34:34.123Z,2.10
2019-05-13T10:37:03.554Z,1.85
2019-05-13T10:39:32.952Z,2.40
2019-05-13T10:42:03.606Z,1.70
2019-05-13T10:44:34.808Z,1.50
2019-05-13T10:47:04.672Z,1.87
2019-05-13T10:49:33.867Z,1.90
2019-05-13T10:52:03.478Z,1.85
2019-05-13T10:54:33.164Z,1.80
2019-05-13T10:57:03.947Z,1.50
2019-05-13T10:59:32.987Z,1.50
2019-05-13T11:02:02.503Z,2.00
2019-05-13T11:04:32.730Z,1.70
2019-05-13T11:07:02.903Z,2.20
2019-05-13T11:09:32.856Z,1.67
2019-05-13T11:12:02.380Z,1.77
2019-05-13T11:14:32.341Z,2.08
2019-05-13T11:17:02.627Z,1.80
2019-05-13T11:19:36.088Z,1.90
2019-05-13T11:22:03.081Z,2.40
2019-05-13T11:24:32.652Z,1.70
2019-05-13T11:27:02.838Z,2.08
2019-05-13T11:29:32.736Z,1.32
2019-05-13T11:32:02.955Z,1.60
2019-05-13T11:34:33.179Z,1.50
2019-05-13T11:37:03.605Z,1.50
2019-05-13T11:39:32.990Z,2.00
2019-05-13T11:42:02.537Z,1.52
2019-05-13T11:44:32.346Z,1.85
2019-05-13T11:47:02.909Z,1.57
2019-05-13T11:49:32.263Z,1.90
2019-05-13T11:52:02.638Z,1.32
2019-05-13T11:54:32.287Z,1.60
2019-05-13T11:57:06.185Z,1.60
2019-05-13T11:59:33.160Z,1.60
2019-05-13T12:02:04.583Z,1.70
2019-05-13T12:04:34.426Z,1.50
2019-05-13T12:07:04.290Z,1.32
2019-05-13T12:09:33.359Z,1.75
2019-05-13T12:12:03.424Z,1.77
2019-05-13T12:14:44.274Z,1.90
2019-05-13T12:17:03.774Z,1.70
2019-05-13T12:19:32.804Z,1.98
2019-05-13T12:22:02.859Z,1.65
2019-05-13T12:24:32.174Z,1.60
2019-05-13T12:27:03.542Z,2.00
2019-05-13T12:29:32.602Z,1.32
2019-05-13T12:32:03.272Z,1.67
2019-05-13T12:34:40.245Z,1.50
2019-05-13T12:37:04.612Z,1.32
2019-05-13T12:39:34.167Z,1.75
2019-05-13T12:42:03.734Z,1.90
2019-05-13T12:44:33.400Z,1.55
2019-05-13T12:47:03.271Z,1.75
2019-05-13T12:49:36.389Z,1.22
2019-05-13T12:52:04.631Z,1.70
2019-05-13T12:54:33.869Z,2.20
2019-05-13T12:57:03.628Z,1.72
2019-05-13T12:59:33.725Z,1.90
2019-05-13T13:02:03.483Z,2.00
2019-05-13T13:04:33.741Z,2.25
2019-05-13T13:07:03.358Z,1.80
2019-05-13T13:09:33.420Z,1.70
2019-05-13T13:12:02.796Z,1.52
2019-05-13T13:14:38.389Z,2.15
2019-05-13T13:17:04.294Z,1.90
2019-05-13T13:19:34.347Z,1.85
2019-05-13T13:22:07.677Z,1.75
2019-05-13T13:24:34.106Z,1.82
2019-05-13T13:27:03.454Z,1.60
2019-05-13T13:29:34.000Z,2.30
2019-05-13T13:32:03.636Z,1.80
2019-05-13T13:34:33.891Z,2.00
2019-05-13T13:37:05.002Z,1.90
2019-05-13T13:39:33.716Z,1.52
2019-05-13T13:42:05.672Z,1.90
2019-05-13T13:44:35.146Z,2.10
2019-05-13T13:47:04.416Z,1.98
2019-05-13T13:52:04.218Z,2.12
2019-05-13T13:54:33.915Z,2.12
2019-05-13T13:57:03.020Z,1.80
2019-05-13T13:59:36.035Z,2.25
2019-05-13T14:02:05.522Z,2.10
2019-05-13T14:04:33.873Z,2.27
2019-05-13T14:07:13.040Z,2.10
2019-05-13T14:07:27.838Z,2.65
2019-05-13T14:09:33.676Z,2.40
2019-05-13T14:12:02.734Z,2.08
2019-05-13T14:14:32.032Z,1.90
2019-05-13T14:17:02.471Z,2.08
2019-05-13T14:19:32.477Z,1.92
2019-05-13T14:22:01.742Z,2.27
2019-05-13T14:24:33.093Z,2.12
2019-05-13T14:27:02.887Z,2.27
2019-05-13T14:29:40.565Z,2.40
2019-05-13T14:32:02.930Z,2.42
2019-05-13T14:34:32.058Z,2.22
2019-05-13T14:37:01.429Z,1.87
2019-05-13T14:39:31.917Z,1.75
2019-05-13T14:42:02.195Z,2.40
2019-05-13T14:44:32.492Z,2.10
2019-05-13T14:47:02.039Z,2.27
2019-05-13T14:49:31.818Z,2.33
2019-05-13T14:52:01.644Z,2.05
2019-05-13T14:54:31.522Z,2.50
2019-05-13T14:57:02.394Z,2.60
2019-05-13T14:59:32.001Z,2.50
2019-05-13T15:02:01.439Z,2.70
2019-05-13T15:04:32.537Z,1.90
2019-05-13T15:07:01.504Z,2.40
2019-05-13T15:09:31.391Z,3.08
2019-05-13T15:12:02.164Z,2.92
2019-05-13T15:14:31.943Z,2.77
2019-05-13T15:17:31.537Z,2.30
2019-05-13T15:19:32.600Z,2.80
2019-05-13T15:22:02.350Z,2.35
2019-05-13T15:24:32.407Z,2.60
2019-05-13T15:27:01.564Z,2.83
2019-05-13T15:29:31.287Z,2.45
2019-05-13T15:32:02.132Z,2.87
2019-05-13T15:34:31.749Z,3.20
2019-05-13T15:37:02.114Z,3.20
2019-05-13T15:39:31.649Z,2.95
2019-05-13T15:42:01.901Z,3.33
2019-05-13T15:44:32.609Z,4.15
2019-05-13T15:47:12.061Z,4.03
2019-05-13T15:49:33.121Z,3.52
2019-05-13T15:52:02.436Z,3.50
2019-05-13T15:54:32.701Z,2.70
2019-05-13T15:57:02.363Z,3.72
2019-05-13T15:59:31.570Z,3.80
2019-05-13T16:02:02.245Z,3.77
2019-05-13T16:04:31.777Z,3.83
2019-05-13T16:07:01.655Z,3.98
2019-05-13T16:09:31.459Z,3.75
2019-05-13T16:12:01.486Z,4.00
2019-05-13T16:14:31.660Z,3.85
2019-05-13T16:17:00.898Z,3.00
2019-05-13T16:19:32.690Z,3.62
2019-05-13T16:22:01.482Z,3.72
2019-05-13T16:24:32.156Z,3.27
2019-05-13T16:27:02.583Z,4.30
2019-05-13T16:29:31.805Z,3.40
2019-05-13T16:32:01.749Z,3.65
2019-05-13T16:34:31.913Z,2.98
2019-05-13T16:37:02.167Z,3.60
2019-05-13T16:39:32.187Z,3.98
2019-05-13T16:42:01.858Z,3.60
2019-05-13T16:44:31.836Z,3.20
2019-05-13T16:47:01.611Z,3.62
2019-05-13T16:49:31.820Z,3.52
2019-05-13T16:52:02.475Z,3.60
2019-05-13T16:54:32.883Z,3.15
2019-05-13T16:57:02.638Z,3.87
2019-05-13T16:59:31.739Z,3.60
2019-05-13T17:02:01.990Z,3.83
2019-05-13T17:04:32.188Z,4.22
2019-05-13T17:07:01.769Z,4.30
2019-05-13T17:09:32.384Z,3.77
2019-05-13T17:12:01.700Z,3.65
2019-05-13T17:14:32.258Z,3.52
2019-05-13T17:17:01.787Z,3.42
2019-05-13T17:19:31.816Z,3.15
2019-05-13T17:22:02.594Z,3.62
2019-05-13T17:24:32.198Z,3.67
2019-05-13T17:27:02.370Z,3.70
2019-05-13T17:29:31.847Z,3.87
2019-05-13T17:32:02.338Z,2.85
2019-05-13T17:34:32.067Z,3.75
2019-05-13T17:37:02.631Z,3.83
2019-05-13T17:39:32.327Z,3.22
2019-05-13T17:42:01.710Z,3.72
2019-05-13T17:44:32.079Z,3.87
2019-05-13T17:47:01.875Z,4.05
2019-05-13T17:49:31.919Z,3.65
2019-05-13T17:52:02.452Z,3.00
2019-05-13T17:54:32.272Z,3.75
2019-05-13T17:57:02.211Z,3.70
2019-05-13T17:59:31.803Z,4.08
2019-05-13T18:02:02.662Z,3.10
2019-05-13T18:04:31.698Z,3.98
2019-05-13T18:07:01.633Z,3.72
2019-05-13T18:09:32.124Z,3.50
2019-05-13T18:12:02.417Z,3.40
2019-05-13T18:14:31.677Z,3.83
2019-05-13T18:17:02.307Z,4.37
2019-05-13T18:19:31.979Z,4.63
2019-05-13T18:22:02.914Z,3.35
2019-05-13T18:24:32.517Z,3.57
2019-05-13T18:27:01.909Z,4.05
2019-05-13T18:29:31.730Z,3.40
2019-05-13T18:32:01.918Z,2.80
2019-05-13T18:34:32.162Z,3.37
2019-05-13T18:37:02.456Z,3.10
2019-05-13T18:39:32.392Z,3.40
2019-05-13T18:42:01.528Z,3.40
2019-05-13T18:44:31.684Z,3.50
2019-05-13T18:47:01.632Z,4.47
2019-05-13T18:49:31.851Z,5.30
2019-05-13T18:52:01.686Z,5.23
2019-05-13T18:54:31.645Z,4.83
2019-05-13T18:57:01.675Z,5.60
2019-05-13T18:59:32.241Z,5.03
2019-05-13T19:02:01.633Z,5.00
2019-05-13T19:04:31.438Z,4.90
2019-05-13T19:07:02.401Z,13.13
2019-05-13T19:09:31.639Z,12.00
2019-05-13T19:12:01.561Z,6.30
2019-05-13T19:14:31.755Z,3.50
2019-05-13T19:17:02.032Z,3.90
2019-05-13T19:19:31.776Z,3.90
2019-05-13T19:22:02.167Z,4.33
2019-05-13T19:24:31.402Z,4.40
2019-05-13T19:27:01.659Z,3.90
2019-05-13T19:29:31.745Z,4.77
2019-05-13T19:32:01.742Z,4.73
2019-05-13T19:34:32.299Z,3.90
2019-05-13T19:37:02.437Z,4.70
2019-05-13T19:39:31.768Z,4.20
2019-05-13T19:42:00.795Z,4.13
2019-05-13T19:44:31.562Z,4.13
2019-05-13T19:47:02.021Z,4.37
2019-05-13T19:49:36.135Z,4.00
2019-05-13T19:52:02.189Z,4.73
2019-05-13T19:54:31.519Z,4.53
2019-05-13T19:57:01.530Z,3.73
2019-05-13T19:59:32.262Z,4.80
2019-05-13T20:02:01.621Z,4.00
2019-05-13T20:04:31.304Z,4.07
2019-05-13T20:07:01.223Z,4.53
2019-05-13T20:09:32.253Z,4.03
2019-05-13T20:12:01.991Z,3.77
2019-05-13T20:14:31.609Z,5.03
2019-05-13T20:17:01.636Z,4.50
2019-05-13T20:19:46.188Z,4.27
2019-05-13T20:22:02.473Z,4.40
2019-05-13T20:24:31.915Z,5.00
2019-05-13T20:27:01.602Z,4.17
2019-05-13T20:29:30.780Z,4.60
2019-05-13T20:32:01.360Z,4.40
2019-05-13T20:34:31.768Z,4.47
2019-05-13T20:37:02.073Z,4.63
2019-05-13T20:39:32.052Z,4.87
2019-05-13T20:42:01.992Z,4.90
2019-05-13T20:44:31.410Z,4.33
2019-05-13T20:47:01.544Z,4.60
2019-05-13T20:49:31.422Z,4.20
2019-05-13T20:52:00.516Z,5.30
2019-05-13T20:54:31.443Z,3.80
2019-05-13T20:57:01.976Z,4.73
2019-05-13T20:59:32.171Z,4.93
2019-05-13T21:02:02.473Z,4.20
2019-05-13T21:04:32.244Z,4.60
2019-05-13T21:07:02.105Z,4.80
2019-05-13T21:09:31.737Z,4.90
2019-05-13T21:12:01.977Z,5.07
2019-05-13T21:14:32.070Z,5.10
2019-05-13T21:17:01.745Z,8.40
2019-05-13T21:19:39.401Z,8.77
2019-05-13T21:22:01.984Z,30.07
2019-05-13T21:24:31.886Z,9.07
2019-05-13T21:27:01.959Z,16.40
2019-05-13T21:29:32.287Z,13.93
2019-05-13T21:32:01.611Z,8.33
2019-05-13T21:34:31.556Z,5.83
2019-05-13T21:37:02.289Z,5.63
2019-05-13T21:39:32.094Z,5.40
2019-05-13T21:42:02.351Z,5.77
2019-05-13T21:44:32.646Z,5.37
2019-05-13T21:47:02.280Z,6.23
2019-05-13T21:49:31.983Z,9.63
2019-05-13T21:52:01.773Z,9.73
2019-05-13T21:54:33.490Z,10.27
2019-05-13T21:57:02.351Z,13.93
2019-05-13T21:59:32.168Z,12.23
2019-05-13T22:02:02.002Z,6.83
2019-05-13T22:04:31.073Z,6.30
2019-05-13T22:07:01.485Z,6.33
2019-05-13T22:09:31.825Z,4.90
2019-05-13T22:12:01.831Z,5.33
2019-05-13T22:14:32.011Z,5.27
2019-05-13T22:17:01.913Z,4.97
2019-05-13T22:19:31.749Z,5.07
2019-05-13T22:22:02.247Z,4.87
2019-05-13T22:24:31.846Z,5.27
2019-05-13T22:27:01.942Z,5.20
2019-05-13T22:29:32.031Z,4.90
2019-05-13T22:32:02.220Z,5.20
2019-05-13T22:34:32.044Z,4.87
2019-05-13T22:37:02.365Z,4.70
2019-05-13T22:39:34.566Z,5.00
2019-05-13T22:42:02.713Z,4.90
2019-05-13T22:44:32.594Z,4.90
2019-05-13T22:47:02.579Z,4.57
2019-05-13T22:49:31.782Z,4.63
2019-05-13T22:52:00.831Z,4.60
2019-05-13T22:54:31.798Z,4.30
2019-05-13T22:57:00.910Z,4.30
2019-05-13T22:59:32.059Z,4.87
2019-05-13T23:02:00.778Z,4.03
2019-05-13T23:04:31.446Z,4.50
2019-05-13T23:07:01.403Z,4.10
2019-05-13T23:09:32.211Z,4.17
2019-05-13T23:12:01.764Z,4.00
2019-05-13T23:14:30.862Z,4.50
2019-05-13T23:17:02.146Z,4.10
2019-05-13T23:19:32.271Z,3.43
2019-05-13T23:22:01.763Z,4.00
2019-05-13T23:24:31.130Z,3.50
2019-05-13T23:27:02.120Z,3.43
2019-05-13T23:29:31.932Z,3.47
2019-05-13T23:32:01.540Z,3.30
2019-05-13T23:34:31.836Z,3.23
2019-05-13T23:37:01.071Z,3.67
2019-05-13T23:39:32.136Z,3.97
2019-05-13T23:42:01.521Z,3.50
2019-05-13T23:44:32.214Z,3.70
2019-05-13T23:47:02.117Z,3.67
2019-05-13T23:49:31.776Z,3.27
2019-05-13T23:52:02.559Z,3.50
2019-05-13T23:54:31.699Z,3.10
2019-05-13T23:57:01.251Z,3.10
2019-05-13T23:59:31.246Z,3.27
